sensor_id;sensor_type;location;lat;lon;timestamp;P1;durP1;ratioP1;P2;durP2;ratioP2
56997;SDS011;42890;44.244;22.530;2022-12-10T00:00:37;133.88;;;70.43;;
56997;SDS011;42890;44.244;22.530;2022-12-10T00:03:03;138.23;;;73.88;;
56997;SDS011;42890;44.244;22.530;2022-12-10T00:05:29;127.93;;;68.20;;
56997;SDS011;42890;44.244;22.530;2022-12-10T00:07:55;141.73;;;75.55;;
56997;SDS011;42890;44.244;22.530;2022-12-10T00:10:22;161.07;;;80.85;;
56997;SDS011;42890;44.244;22.530;2022-12-10T00:12:48;145.68;;;78.25;;
56997;SDS011;42890;44.244;22.530;2022-12-10T00:15:14;203.13;;;103.53;;
56997;SDS011;42890;44.244;22.530;2022-12-10T00:17:41;209.63;;;111.38;;
56997;SDS011;42890;44.244;22.530;2022-12-10T00:20:08;236.60;;;113.65;;
56997;SDS011;42890;44.244;22.530;2022-12-10T00:22:34;256.10;;;122.95;;
56997;SDS011;42890;44.244;22.530;2022-12-10T00:25:00;201.75;;;102.50;;
56997;SDS011;42890;44.244;22.530;2022-12-10T00:27:27;161.38;;;87.60;;
56997;SDS011;42890;44.244;22.530;2022-12-10T00:29:53;99.95;;;60.95;;
56997;SDS011;42890;44.244;22.530;2022-12-10T00:32:19;89.03;;;55.72;;
56997;SDS011;42890;44.244;22.530;2022-12-10T00:34:45;94.50;;;56.85;;
56997;SDS011;42890;44.244;22.530;2022-12-10T00:37:11;476.30;;;217.07;;
56997;SDS011;42890;44.244;22.530;2022-12-10T00:39:37;156.88;;;74.80;;
56997;SDS011;42890;44.244;22.530;2022-12-10T00:42:03;208.23;;;92.97;;
56997;SDS011;42890;44.244;22.530;2022-12-10T00:44:30;213.85;;;102.88;;
56997;SDS011;42890;44.244;22.530;2022-12-10T00:46:56;161.00;;;82.18;;
56997;SDS011;42890;44.244;22.530;2022-12-10T00:49:22;131.90;;;70.72;;
56997;SDS011;42890;44.244;22.530;2022-12-10T00:51:49;320.98;;;143.52;;
56997;SDS011;42890;44.244;22.530;2022-12-10T00:54:15;160.32;;;85.88;;
56997;SDS011;42890;44.244;22.530;2022-12-10T00:56:41;157.35;;;91.05;;
56997;SDS011;42890;44.244;22.530;2022-12-10T00:59:08;129.88;;;75.45;;
56997;SDS011;42890;44.244;22.530;2022-12-10T01:01:38;109.63;;;69.40;;
56997;SDS011;42890;44.244;22.530;2022-12-10T01:04:08;111.95;;;67.35;;
56997;SDS011;42890;44.244;22.530;2022-12-10T01:06:36;128.68;;;74.45;;
56997;SDS011;42890;44.244;22.530;2022-12-10T01:09:04;159.05;;;88.50;;
56997;SDS011;42890;44.244;22.530;2022-12-10T01:11:31;172.73;;;99.63;;
56997;SDS011;42890;44.244;22.530;2022-12-10T01:13:57;175.02;;;101.30;;
56997;SDS011;42890;44.244;22.530;2022-12-10T01:16:24;159.38;;;85.05;;
56997;SDS011;42890;44.244;22.530;2022-12-10T01:18:53;150.48;;;87.63;;
56997;SDS011;42890;44.244;22.530;2022-12-10T01:21:20;159.95;;;90.72;;
56997;SDS011;42890;44.244;22.530;2022-12-10T01:23:47;165.60;;;92.40;;
56997;SDS011;42890;44.244;22.530;2022-12-10T01:26:14;141.23;;;81.50;;
56997;SDS011;42890;44.244;22.530;2022-12-10T01:28:41;138.75;;;80.57;;
56997;SDS011;42890;44.244;22.530;2022-12-10T01:31:11;121.28;;;73.45;;
56997;SDS011;42890;44.244;22.530;2022-12-10T01:33:38;113.85;;;65.70;;
56997;SDS011;42890;44.244;22.530;2022-12-10T01:36:06;111.47;;;63.03;;
56997;SDS011;42890;44.244;22.530;2022-12-10T01:38:32;92.78;;;58.55;;
56997;SDS011;42890;44.244;22.530;2022-12-10T01:40:59;87.40;;;58.78;;
56997;SDS011;42890;44.244;22.530;2022-12-10T01:43:26;72.13;;;53.30;;
56997;SDS011;42890;44.244;22.530;2022-12-10T01:45:52;88.28;;;59.08;;
56997;SDS011;42890;44.244;22.530;2022-12-10T01:48:18;121.68;;;71.47;;
56997;SDS011;42890;44.244;22.530;2022-12-10T01:50:45;162.23;;;87.13;;
56997;SDS011;42890;44.244;22.530;2022-12-10T01:53:12;166.57;;;91.13;;
56997;SDS011;42890;44.244;22.530;2022-12-10T01:55:40;188.20;;;105.60;;
56997;SDS011;42890;44.244;22.530;2022-12-10T01:58:06;207.75;;;110.85;;
56997;SDS011;42890;44.244;22.530;2022-12-10T02:00:32;201.43;;;108.05;;
56997;SDS011;42890;44.244;22.530;2022-12-10T02:03:03;151.02;;;82.47;;
56997;SDS011;42890;44.244;22.530;2022-12-10T02:08:08;168.05;;;87.03;;
56997;SDS011;42890;44.244;22.530;2022-12-10T02:13:21;168.73;;;88.28;;
56997;SDS011;42890;44.244;22.530;2022-12-10T02:15:51;192.93;;;98.40;;
56997;SDS011;42890;44.244;22.530;2022-12-10T02:18:19;190.05;;;102.25;;
56997;SDS011;42890;44.244;22.530;2022-12-10T02:20:56;192.43;;;101.25;;
56997;SDS011;42890;44.244;22.530;2022-12-10T02:28:36;146.40;;;78.13;;
56997;SDS011;42890;44.244;22.530;2022-12-10T02:31:04;168.75;;;82.30;;
56997;SDS011;42890;44.244;22.530;2022-12-10T02:33:31;170.52;;;87.50;;
56997;SDS011;42890;44.244;22.530;2022-12-10T02:35:58;160.30;;;83.00;;
56997;SDS011;42890;44.244;22.530;2022-12-10T02:38:32;174.32;;;93.20;;
56997;SDS011;42890;44.244;22.530;2022-12-10T02:41:02;144.52;;;78.82;;
56997;SDS011;42890;44.244;22.530;2022-12-10T02:43:30;147.18;;;83.93;;
56997;SDS011;42890;44.244;22.530;2022-12-10T02:45:58;201.00;;;102.22;;
56997;SDS011;42890;44.244;22.530;2022-12-10T02:48:25;163.18;;;86.93;;
56997;SDS011;42890;44.244;22.530;2022-12-10T02:50:51;119.97;;;67.20;;
56997;SDS011;42890;44.244;22.530;2022-12-10T02:53:18;104.35;;;61.47;;
56997;SDS011;42890;44.244;22.530;2022-12-10T02:58:35;93.43;;;59.20;;
56997;SDS011;42890;44.244;22.530;2022-12-10T03:01:15;108.63;;;60.90;;
56997;SDS011;42890;44.244;22.530;2022-12-10T03:03:48;120.35;;;61.97;;
56997;SDS011;42890;44.244;22.530;2022-12-10T03:08:57;112.22;;;61.70;;
56997;SDS011;42890;44.244;22.530;2022-12-10T03:11:25;104.25;;;61.80;;
56997;SDS011;42890;44.244;22.530;2022-12-10T03:13:56;110.32;;;60.85;;
56997;SDS011;42890;44.244;22.530;2022-12-10T03:16:23;103.97;;;60.72;;
56997;SDS011;42890;44.244;22.530;2022-12-10T03:18:52;101.15;;;56.60;;
56997;SDS011;42890;44.244;22.530;2022-12-10T03:21:19;86.32;;;50.03;;
56997;SDS011;42890;44.244;22.530;2022-12-10T03:23:46;64.32;;;44.15;;
56997;SDS011;42890;44.244;22.530;2022-12-10T03:26:12;67.68;;;43.60;;
56997;SDS011;42890;44.244;22.530;2022-12-10T03:28:40;60.92;;;41.05;;
56997;SDS011;42890;44.244;22.530;2022-12-10T03:31:08;63.95;;;44.03;;
56997;SDS011;42890;44.244;22.530;2022-12-10T03:33:35;58.80;;;39.47;;
56997;SDS011;42890;44.244;22.530;2022-12-10T03:36:01;51.85;;;36.80;;
56997;SDS011;42890;44.244;22.530;2022-12-10T03:38:27;56.58;;;37.97;;
56997;SDS011;42890;44.244;22.530;2022-12-10T03:40:54;56.42;;;38.85;;
56997;SDS011;42890;44.244;22.530;2022-12-10T03:43:20;56.25;;;38.60;;
56997;SDS011;42890;44.244;22.530;2022-12-10T03:45:47;52.88;;;36.50;;
56997;SDS011;42890;44.244;22.530;2022-12-10T03:48:13;55.38;;;38.67;;
56997;SDS011;42890;44.244;22.530;2022-12-10T03:50:39;56.28;;;36.35;;
56997;SDS011;42890;44.244;22.530;2022-12-10T03:53:05;66.25;;;39.88;;
56997;SDS011;42890;44.244;22.530;2022-12-10T03:55:31;55.95;;;38.63;;
56997;SDS011;42890;44.244;22.530;2022-12-10T03:57:58;64.03;;;42.22;;
56997;SDS011;42890;44.244;22.530;2022-12-10T04:00:24;65.78;;;43.80;;
56997;SDS011;42890;44.244;22.530;2022-12-10T04:02:50;65.95;;;43.28;;
56997;SDS011;42890;44.244;22.530;2022-12-10T04:05:16;60.85;;;42.88;;
56997;SDS011;42890;44.244;22.530;2022-12-10T04:07:42;64.00;;;43.70;;
56997;SDS011;42890;44.244;22.530;2022-12-10T04:10:08;60.85;;;41.58;;
56997;SDS011;42890;44.244;22.530;2022-12-10T04:12:35;66.15;;;44.53;;
56997;SDS011;42890;44.244;22.530;2022-12-10T04:15:01;67.38;;;45.58;;
56997;SDS011;42890;44.244;22.530;2022-12-10T04:17:45;96.45;;;57.70;;
56997;SDS011;42890;44.244;22.530;2022-12-10T04:20:11;104.57;;;57.60;;
56997;SDS011;42890;44.244;22.530;2022-12-10T04:22:56;96.80;;;52.90;;
56997;SDS011;42890;44.244;22.530;2022-12-10T04:25:41;90.20;;;51.80;;
56997;SDS011;42890;44.244;22.530;2022-12-10T04:28:26;98.90;;;52.75;;
56997;SDS011;42890;44.244;22.530;2022-12-10T04:30:52;104.07;;;54.70;;
56997;SDS011;42890;44.244;22.530;2022-12-10T04:33:18;130.52;;;63.13;;
56997;SDS011;42890;44.244;22.530;2022-12-10T04:35:44;141.02;;;68.18;;
56997;SDS011;42890;44.244;22.530;2022-12-10T04:38:10;139.32;;;66.85;;
56997;SDS011;42890;44.244;22.530;2022-12-10T04:40:36;110.35;;;58.10;;
56997;SDS011;42890;44.244;22.530;2022-12-10T04:43:02;123.38;;;58.88;;
56997;SDS011;42890;44.244;22.530;2022-12-10T04:45:29;106.15;;;59.22;;
56997;SDS011;42890;44.244;22.530;2022-12-10T04:47:55;111.45;;;62.25;;
56997;SDS011;42890;44.244;22.530;2022-12-10T04:50:21;107.88;;;61.22;;
56997;SDS011;42890;44.244;22.530;2022-12-10T04:52:47;121.15;;;62.33;;
56997;SDS011;42890;44.244;22.530;2022-12-10T04:55:13;118.25;;;59.53;;
56997;SDS011;42890;44.244;22.530;2022-12-10T04:57:41;103.63;;;55.75;;
56997;SDS011;42890;44.244;22.530;2022-12-10T05:00:08;88.93;;;51.97;;
56997;SDS011;42890;44.244;22.530;2022-12-10T05:02:34;106.82;;;58.08;;
56997;SDS011;42890;44.244;22.530;2022-12-10T05:05:00;115.15;;;59.42;;
56997;SDS011;42890;44.244;22.530;2022-12-10T05:07:26;131.70;;;65.13;;
56997;SDS011;42890;44.244;22.530;2022-12-10T05:09:52;251.05;;;113.45;;
56997;SDS011;42890;44.244;22.530;2022-12-10T05:12:18;178.82;;;86.05;;
56997;SDS011;42890;44.244;22.530;2022-12-10T05:14:45;158.23;;;80.10;;
56997;SDS011;42890;44.244;22.530;2022-12-10T05:17:11;188.75;;;95.20;;
56997;SDS011;42890;44.244;22.530;2022-12-10T05:19:37;201.85;;;105.45;;
56997;SDS011;42890;44.244;22.530;2022-12-10T05:22:03;187.65;;;98.93;;
56997;SDS011;42890;44.244;22.530;2022-12-10T05:24:47;147.07;;;81.13;;
56997;SDS011;42890;44.244;22.530;2022-12-10T05:27:14;101.93;;;63.00;;
56997;SDS011;42890;44.244;22.530;2022-12-10T05:29:40;99.22;;;57.65;;
56997;SDS011;42890;44.244;22.530;2022-12-10T05:32:06;91.28;;;56.28;;
56997;SDS011;42890;44.244;22.530;2022-12-10T05:34:32;113.65;;;62.58;;
56997;SDS011;42890;44.244;22.530;2022-12-10T05:36:58;151.25;;;79.43;;
56997;SDS011;42890;44.244;22.530;2022-12-10T05:39:24;140.45;;;76.22;;
56997;SDS011;42890;44.244;22.530;2022-12-10T05:41:50;128.93;;;74.32;;
56997;SDS011;42890;44.244;22.530;2022-12-10T05:44:16;104.03;;;66.63;;
56997;SDS011;42890;44.244;22.530;2022-12-10T05:46:42;99.68;;;64.07;;
56997;SDS011;42890;44.244;22.530;2022-12-10T05:49:09;96.15;;;63.38;;
56997;SDS011;42890;44.244;22.530;2022-12-10T05:51:35;96.72;;;65.80;;
56997;SDS011;42890;44.244;22.530;2022-12-10T05:54:02;90.32;;;64.00;;
56997;SDS011;42890;44.244;22.530;2022-12-10T05:56:29;83.60;;;62.05;;
56997;SDS011;42890;44.244;22.530;2022-12-10T05:58:59;81.30;;;60.85;;
56997;SDS011;42890;44.244;22.530;2022-12-10T06:01:27;79.75;;;58.13;;
56997;SDS011;42890;44.244;22.530;2022-12-10T06:03:53;80.00;;;56.92;;
56997;SDS011;42890;44.244;22.530;2022-12-10T06:06:23;84.72;;;59.92;;
56997;SDS011;42890;44.244;22.530;2022-12-10T06:08:51;78.97;;;56.53;;
56997;SDS011;42890;44.244;22.530;2022-12-10T06:11:18;82.25;;;55.00;;
56997;SDS011;42890;44.244;22.530;2022-12-10T06:13:44;69.45;;;53.47;;
56997;SDS011;42890;44.244;22.530;2022-12-10T06:16:11;71.28;;;52.22;;
56997;SDS011;42890;44.244;22.530;2022-12-10T06:18:38;67.22;;;46.70;;
56997;SDS011;42890;44.244;22.530;2022-12-10T06:21:04;59.30;;;41.30;;
56997;SDS011;42890;44.244;22.530;2022-12-10T06:23:31;63.30;;;43.08;;
56997;SDS011;42890;44.244;22.530;2022-12-10T06:25:57;62.47;;;40.78;;
56997;SDS011;42890;44.244;22.530;2022-12-10T06:28:23;56.88;;;43.15;;
56997;SDS011;42890;44.244;22.530;2022-12-10T06:30:49;63.67;;;43.58;;
56997;SDS011;42890;44.244;22.530;2022-12-10T06:33:15;66.03;;;42.90;;
56997;SDS011;42890;44.244;22.530;2022-12-10T06:35:41;59.85;;;39.67;;
56997;SDS011;42890;44.244;22.530;2022-12-10T06:38:08;55.75;;;41.13;;
56997;SDS011;42890;44.244;22.530;2022-12-10T06:40:34;63.92;;;45.63;;
56997;SDS011;42890;44.244;22.530;2022-12-10T06:43:00;74.28;;;50.97;;
56997;SDS011;42890;44.244;22.530;2022-12-10T06:45:26;90.50;;;59.55;;
56997;SDS011;42890;44.244;22.530;2022-12-10T06:47:52;134.25;;;78.80;;
56997;SDS011;42890;44.244;22.530;2022-12-10T06:50:18;127.22;;;72.60;;
56997;SDS011;42890;44.244;22.530;2022-12-10T06:52:44;142.68;;;72.18;;
56997;SDS011;42890;44.244;22.530;2022-12-10T06:55:10;124.97;;;71.78;;
56997;SDS011;42890;44.244;22.530;2022-12-10T06:57:36;136.23;;;67.25;;
56997;SDS011;42890;44.244;22.530;2022-12-10T07:00:03;127.00;;;63.67;;
56997;SDS011;42890;44.244;22.530;2022-12-10T07:02:29;112.32;;;57.83;;
56997;SDS011;42890;44.244;22.530;2022-12-10T07:04:56;103.50;;;56.83;;
56997;SDS011;42890;44.244;22.530;2022-12-10T07:07:22;113.78;;;55.88;;
56997;SDS011;42890;44.244;22.530;2022-12-10T07:09:48;98.40;;;54.72;;
56997;SDS011;42890;44.244;22.530;2022-12-10T07:12:14;92.35;;;55.83;;
56997;SDS011;42890;44.244;22.530;2022-12-10T07:14:40;107.32;;;56.05;;
56997;SDS011;42890;44.244;22.530;2022-12-10T07:17:07;109.57;;;56.13;;
56997;SDS011;42890;44.244;22.530;2022-12-10T07:19:33;95.88;;;52.97;;
56997;SDS011;42890;44.244;22.530;2022-12-10T07:21:59;85.13;;;47.45;;
56997;SDS011;42890;44.244;22.530;2022-12-10T07:24:25;68.78;;;45.25;;
56997;SDS011;42890;44.244;22.530;2022-12-10T07:26:51;63.50;;;38.38;;
56997;SDS011;42890;44.244;22.530;2022-12-10T07:29:18;58.40;;;39.40;;
56997;SDS011;42890;44.244;22.530;2022-12-10T07:31:45;59.95;;;38.53;;
56997;SDS011;42890;44.244;22.530;2022-12-10T07:34:12;62.15;;;38.63;;
56997;SDS011;42890;44.244;22.530;2022-12-10T07:36:39;55.17;;;39.17;;
56997;SDS011;42890;44.244;22.530;2022-12-10T07:39:06;54.53;;;37.33;;
56997;SDS011;42890;44.244;22.530;2022-12-10T07:41:32;50.42;;;34.95;;
56997;SDS011;42890;44.244;22.530;2022-12-10T07:44:00;46.20;;;33.95;;
56997;SDS011;42890;44.244;22.530;2022-12-10T07:46:27;50.47;;;37.70;;
56997;SDS011;42890;44.244;22.530;2022-12-10T07:48:54;62.42;;;40.47;;
56997;SDS011;42890;44.244;22.530;2022-12-10T07:51:20;53.92;;;38.90;;
56997;SDS011;42890;44.244;22.530;2022-12-10T07:53:47;52.75;;;36.53;;
56997;SDS011;42890;44.244;22.530;2022-12-10T07:56:14;45.55;;;34.67;;
56997;SDS011;42890;44.244;22.530;2022-12-10T07:58:41;43.60;;;35.10;;
56997;SDS011;42890;44.244;22.530;2022-12-10T08:01:12;39.00;;;30.92;;
56997;SDS011;42890;44.244;22.530;2022-12-10T08:03:38;31.33;;;27.75;;
56997;SDS011;42890;44.244;22.530;2022-12-10T08:06:09;32.22;;;28.50;;
56997;SDS011;42890;44.244;22.530;2022-12-10T08:08:35;40.95;;;31.95;;
56997;SDS011;42890;44.244;22.530;2022-12-10T08:11:02;34.97;;;30.20;;
56997;SDS011;42890;44.244;22.530;2022-12-10T08:13:29;32.58;;;29.08;;
56997;SDS011;42890;44.244;22.530;2022-12-10T08:16:05;37.30;;;33.40;;
56997;SDS011;42890;44.244;22.530;2022-12-10T08:18:32;38.00;;;32.83;;
56997;SDS011;42890;44.244;22.530;2022-12-10T08:21:02;38.38;;;33.33;;
56997;SDS011;42890;44.244;22.530;2022-12-10T08:23:28;37.97;;;33.75;;
56997;SDS011;42890;44.244;22.530;2022-12-10T08:25:55;39.45;;;34.42;;
56997;SDS011;42890;44.244;22.530;2022-12-10T08:28:21;34.85;;;31.13;;
56997;SDS011;42890;44.244;22.530;2022-12-10T08:30:47;31.98;;;28.55;;
56997;SDS011;42890;44.244;22.530;2022-12-10T08:33:14;28.85;;;26.10;;
56997;SDS011;42890;44.244;22.530;2022-12-10T08:35:40;29.33;;;26.27;;
56997;SDS011;42890;44.244;22.530;2022-12-10T08:38:06;33.13;;;27.92;;
56997;SDS011;42890;44.244;22.530;2022-12-10T08:40:33;30.10;;;27.00;;
56997;SDS011;42890;44.244;22.530;2022-12-10T08:42:59;30.25;;;27.17;;
56997;SDS011;42890;44.244;22.530;2022-12-10T08:45:25;28.73;;;25.55;;
56997;SDS011;42890;44.244;22.530;2022-12-10T08:47:51;26.00;;;23.38;;
56997;SDS011;42890;44.244;22.530;2022-12-10T08:50:17;30.35;;;26.15;;
56997;SDS011;42890;44.244;22.530;2022-12-10T08:52:44;29.00;;;25.98;;
56997;SDS011;42890;44.244;22.530;2022-12-10T08:55:10;27.45;;;24.55;;
56997;SDS011;42890;44.244;22.530;2022-12-10T08:57:36;27.05;;;24.27;;
56997;SDS011;42890;44.244;22.530;2022-12-10T09:00:02;26.77;;;24.08;;
56997;SDS011;42890;44.244;22.530;2022-12-10T09:02:29;24.80;;;22.27;;
56997;SDS011;42890;44.244;22.530;2022-12-10T09:04:58;25.98;;;23.15;;
56997;SDS011;42890;44.244;22.530;2022-12-10T09:07:24;24.48;;;22.17;;
56997;SDS011;42890;44.244;22.530;2022-12-10T09:09:50;24.75;;;22.45;;
56997;SDS011;42890;44.244;22.530;2022-12-10T09:12:16;27.88;;;24.98;;
56997;SDS011;42890;44.244;22.530;2022-12-10T09:14:42;30.27;;;27.38;;
56997;SDS011;42890;44.244;22.530;2022-12-10T09:17:08;29.42;;;26.52;;
56997;SDS011;42890;44.244;22.530;2022-12-10T09:19:35;34.28;;;30.88;;
56997;SDS011;42890;44.244;22.530;2022-12-10T09:22:01;30.65;;;27.02;;
56997;SDS011;42890;44.244;22.530;2022-12-10T09:24:28;32.85;;;29.48;;
56997;SDS011;42890;44.244;22.530;2022-12-10T09:26:54;35.95;;;32.25;;
56997;SDS011;42890;44.244;22.530;2022-12-10T09:29:20;37.72;;;33.78;;
56997;SDS011;42890;44.244;22.530;2022-12-10T09:31:50;35.70;;;31.90;;
56997;SDS011;42890;44.244;22.530;2022-12-10T09:34:16;33.40;;;30.05;;
56997;SDS011;42890;44.244;22.530;2022-12-10T09:36:42;32.35;;;28.98;;
56997;SDS011;42890;44.244;22.530;2022-12-10T09:39:08;35.45;;;28.85;;
56997;SDS011;42890;44.244;22.530;2022-12-10T09:41:41;33.42;;;30.02;;
56997;SDS011;42890;44.244;22.530;2022-12-10T09:44:27;36.20;;;32.42;;
56997;SDS011;42890;44.244;22.530;2022-12-10T09:46:55;42.13;;;37.70;;
56997;SDS011;42890;44.244;22.530;2022-12-10T09:49:25;41.17;;;36.65;;
56997;SDS011;42890;44.244;22.530;2022-12-10T09:51:57;41.88;;;37.63;;
56997;SDS011;42890;44.244;22.530;2022-12-10T09:54:27;45.15;;;40.33;;
56997;SDS011;42890;44.244;22.530;2022-12-10T09:56:54;48.92;;;42.90;;
56997;SDS011;42890;44.244;22.530;2022-12-10T10:01:51;71.53;;;63.78;;
56997;SDS011;42890;44.244;22.530;2022-12-10T10:04:24;59.45;;;53.15;;
56997;SDS011;42890;44.244;22.530;2022-12-10T10:06:50;60.53;;;53.72;;
56997;SDS011;42890;44.244;22.530;2022-12-10T10:09:16;41.95;;;37.67;;
56997;SDS011;42890;44.244;22.530;2022-12-10T10:11:43;30.80;;;27.73;;
56997;SDS011;42890;44.244;22.530;2022-12-10T10:14:12;30.60;;;27.45;;
56997;SDS011;42890;44.244;22.530;2022-12-10T10:16:48;31.30;;;28.15;;
56997;SDS011;42890;44.244;22.530;2022-12-10T10:19:17;31.92;;;28.70;;
56997;SDS011;42890;44.244;22.530;2022-12-10T10:21:45;33.50;;;30.10;;
56997;SDS011;42890;44.244;22.530;2022-12-10T10:24:19;34.72;;;31.23;;
56997;SDS011;42890;44.244;22.530;2022-12-10T10:26:45;37.47;;;33.80;;
56997;SDS011;42890;44.244;22.530;2022-12-10T10:29:13;30.40;;;27.42;;
56997;SDS011;42890;44.244;22.530;2022-12-10T10:31:40;31.67;;;28.58;;
56997;SDS011;42890;44.244;22.530;2022-12-10T10:34:20;28.67;;;25.67;;
56997;SDS011;42890;44.244;22.530;2022-12-10T10:36:47;28.77;;;26.02;;
56997;SDS011;42890;44.244;22.530;2022-12-10T10:41:45;29.25;;;26.30;;
56997;SDS011;42890;44.244;22.530;2022-12-10T10:44:15;26.55;;;24.15;;
56997;SDS011;42890;44.244;22.530;2022-12-10T10:46:42;28.35;;;25.65;;
56997;SDS011;42890;44.244;22.530;2022-12-10T10:49:24;27.52;;;24.92;;
56997;SDS011;42890;44.244;22.530;2022-12-10T10:51:52;29.15;;;26.48;;
56997;SDS011;42890;44.244;22.530;2022-12-10T10:54:30;29.58;;;26.88;;
56997;SDS011;42890;44.244;22.530;2022-12-10T10:56:57;27.25;;;24.55;;
56997;SDS011;42890;44.244;22.530;2022-12-10T10:59:30;28.35;;;25.60;;
56997;SDS011;42890;44.244;22.530;2022-12-10T11:02:19;29.70;;;27.10;;
56997;SDS011;42890;44.244;22.530;2022-12-10T11:07:33;29.65;;;26.75;;
56997;SDS011;42890;44.244;22.530;2022-12-10T11:10:00;29.38;;;26.67;;
56997;SDS011;42890;44.244;22.530;2022-12-10T11:12:36;30.10;;;27.27;;
56997;SDS011;42890;44.244;22.530;2022-12-10T11:17:59;31.15;;;27.95;;
56997;SDS011;42890;44.244;22.530;2022-12-10T11:20:32;41.20;;;36.90;;
56997;SDS011;42890;44.244;22.530;2022-12-10T11:22:59;39.00;;;35.15;;
56997;SDS011;42890;44.244;22.530;2022-12-10T11:28:43;33.60;;;30.25;;
56997;SDS011;42890;44.244;22.530;2022-12-10T11:41:19;97.32;;;71.97;;
56997;SDS011;42890;44.244;22.530;2022-12-10T11:46:53;49.93;;;44.60;;
56997;SDS011;42890;44.244;22.530;2022-12-10T11:54:34;42.95;;;38.63;;
56997;SDS011;42890;44.244;22.530;2022-12-10T11:57:16;47.78;;;43.17;;
56997;SDS011;42890;44.244;22.530;2022-12-10T12:10:10;45.67;;;41.08;;
56997;SDS011;42890;44.244;22.530;2022-12-10T12:12:45;45.90;;;41.20;;
56997;SDS011;42890;44.244;22.530;2022-12-10T12:17:46;48.63;;;43.42;;
56997;SDS011;42890;44.244;22.530;2022-12-10T12:20:17;45.33;;;40.83;;
56997;SDS011;42890;44.244;22.530;2022-12-10T12:22:47;72.57;;;65.05;;
56997;SDS011;42890;44.244;22.530;2022-12-10T12:25:26;57.88;;;52.28;;
56997;SDS011;42890;44.244;22.530;2022-12-10T12:28:10;53.55;;;48.28;;
56997;SDS011;42890;44.244;22.530;2022-12-10T12:30:37;55.33;;;49.80;;
56997;SDS011;42890;44.244;22.530;2022-12-10T12:33:16;52.05;;;46.95;;
56997;SDS011;42890;44.244;22.530;2022-12-10T12:43:19;51.17;;;46.17;;
56997;SDS011;42890;44.244;22.530;2022-12-10T12:45:47;50.30;;;45.38;;
56997;SDS011;42890;44.244;22.530;2022-12-10T12:48:24;50.13;;;45.33;;
56997;SDS011;42890;44.244;22.530;2022-12-10T12:51:09;52.38;;;47.33;;
56997;SDS011;42890;44.244;22.530;2022-12-10T12:53:38;53.05;;;48.00;;
56997;SDS011;42890;44.244;22.530;2022-12-10T12:58:52;70.13;;;62.83;;
56997;SDS011;42890;44.244;22.530;2022-12-10T13:01:27;57.47;;;51.88;;
56997;SDS011;42890;44.244;22.530;2022-12-10T13:03:55;60.55;;;54.50;;
56997;SDS011;42890;44.244;22.530;2022-12-10T13:06:30;239.98;;;153.45;;
56997;SDS011;42890;44.244;22.530;2022-12-10T13:11:38;106.18;;;84.03;;
56997;SDS011;42890;44.244;22.530;2022-12-10T13:27:14;86.32;;;74.05;;
56997;SDS011;42890;44.244;22.530;2022-12-10T13:32:19;81.75;;;72.85;;
56997;SDS011;42890;44.244;22.530;2022-12-10T13:34:46;77.00;;;68.97;;
56997;SDS011;42890;44.244;22.530;2022-12-10T13:37:16;349.48;;;178.48;;
56997;SDS011;42890;44.244;22.530;2022-12-10T13:39:47;97.97;;;79.88;;
56997;SDS011;42890;44.244;22.530;2022-12-10T13:45:03;76.47;;;66.32;;
56997;SDS011;42890;44.244;22.530;2022-12-10T13:50:24;99.93;;;78.95;;
56997;SDS011;42890;44.244;22.530;2022-12-10T13:55:46;131.35;;;88.88;;
56997;SDS011;42890;44.244;22.530;2022-12-10T14:00:53;112.07;;;82.72;;
56997;SDS011;42890;44.244;22.530;2022-12-10T14:08:35;101.60;;;82.97;;
56997;SDS011;42890;44.244;22.530;2022-12-10T14:11:04;121.22;;;88.28;;
56997;SDS011;42890;44.244;22.530;2022-12-10T14:13:36;173.07;;;112.63;;
56997;SDS011;42890;44.244;22.530;2022-12-10T14:16:05;183.27;;;117.63;;
56997;SDS011;42890;44.244;22.530;2022-12-10T14:18:32;166.23;;;104.93;;
56997;SDS011;42890;44.244;22.530;2022-12-10T14:20:59;101.43;;;81.70;;
56997;SDS011;42890;44.244;22.530;2022-12-10T14:23:29;110.78;;;84.07;;
56997;SDS011;42890;44.244;22.530;2022-12-10T14:26:02;171.18;;;112.10;;
56997;SDS011;42890;44.244;22.530;2022-12-10T14:28:29;142.18;;;99.53;;
56997;SDS011;42890;44.244;22.530;2022-12-10T14:30:58;166.40;;;110.82;;
56997;SDS011;42890;44.244;22.530;2022-12-10T14:33:24;197.27;;;130.68;;
56997;SDS011;42890;44.244;22.530;2022-12-10T14:35:51;134.88;;;97.18;;
56997;SDS011;42890;44.244;22.530;2022-12-10T14:38:29;146.68;;;103.50;;
56997;SDS011;42890;44.244;22.530;2022-12-10T14:40:56;326.20;;;199.77;;
56997;SDS011;42890;44.244;22.530;2022-12-10T14:43:24;119.47;;;90.05;;
56997;SDS011;42890;44.244;22.530;2022-12-10T14:45:56;300.20;;;193.77;;
56997;SDS011;42890;44.244;22.530;2022-12-10T14:48:23;198.27;;;134.38;;
56997;SDS011;42890;44.244;22.530;2022-12-10T14:50:49;404.77;;;285.98;;
56997;SDS011;42890;44.244;22.530;2022-12-10T14:53:16;309.25;;;217.35;;
56997;SDS011;42890;44.244;22.530;2022-12-10T14:55:46;229.77;;;155.68;;
56997;SDS011;42890;44.244;22.530;2022-12-10T14:58:19;189.37;;;133.87;;
56997;SDS011;42890;44.244;22.530;2022-12-10T15:00:49;219.50;;;151.20;;
56997;SDS011;42890;44.244;22.530;2022-12-10T15:03:21;153.45;;;109.45;;
56997;SDS011;42890;44.244;22.530;2022-12-10T15:05:55;166.70;;;96.57;;
56997;SDS011;42890;44.244;22.530;2022-12-10T15:08:22;160.25;;;105.53;;
56997;SDS011;42890;44.244;22.530;2022-12-10T15:10:50;163.88;;;99.35;;
56997;SDS011;42890;44.244;22.530;2022-12-10T15:13:29;225.13;;;152.45;;
56997;SDS011;42890;44.244;22.530;2022-12-10T15:15:57;265.50;;;184.15;;
56997;SDS011;42890;44.244;22.530;2022-12-10T15:18:31;233.35;;;167.55;;
56997;SDS011;42890;44.244;22.530;2022-12-10T15:23:32;335.02;;;187.60;;
56997;SDS011;42890;44.244;22.530;2022-12-10T15:28:44;224.90;;;129.57;;
56997;SDS011;42890;44.244;22.530;2022-12-10T15:31:11;275.35;;;141.43;;
56997;SDS011;42890;44.244;22.530;2022-12-10T15:33:49;198.77;;;109.32;;
56997;SDS011;42890;44.244;22.530;2022-12-10T15:38:47;217.07;;;109.47;;
56997;SDS011;42890;44.244;22.530;2022-12-10T15:41:47;180.45;;;101.78;;
56997;SDS011;42890;44.244;22.530;2022-12-10T15:44:16;169.23;;;91.85;;
56997;SDS011;42890;44.244;22.530;2022-12-10T15:46:46;241.18;;;126.57;;
56997;SDS011;42890;44.244;22.530;2022-12-10T15:49:13;232.13;;;119.93;;
56997;SDS011;42890;44.244;22.530;2022-12-10T15:51:40;229.98;;;110.03;;
56997;SDS011;42890;44.244;22.530;2022-12-10T15:54:40;256.08;;;136.98;;
56997;SDS011;42890;44.244;22.530;2022-12-10T15:56:59;243.05;;;129.13;;
56997;SDS011;42890;44.244;22.530;2022-12-10T15:59:25;284.95;;;142.20;;
56997;SDS011;42890;44.244;22.530;2022-12-10T16:01:51;433.63;;;209.80;;